Time;durP1;ratioP1;P1;durP2;ratioP2;P2;SDS_P1;SDS_P2;PMS_P1;PMS_P2;Temp;Humidity;BMP_temperature;BMP_pressure;BME280_temperature;BME280_humidity;BME280_pressure;Samples;Min_cycle;Max_cycle;Signal;HPM_P1;HPM_P2
2022/01/12 00:00:47;;;;;;;7.72;4.18;;;;;;;18.44;42.10;103449.34;5035694;28;20026;-61
2022/01/12 00:03:13;;;;;;;8.55;4.53;;;;;;;18.41;42.06;103449.47;5037833;28;20032;-60
2022/01/12 00:05:39;;;;;;;6.72;3.90;;;;;;;18.39;42.06;103461.88;5040648;28;20026;-60
2022/01/12 00:08:05;;;;;;;8.48;4.40;;;;;;;18.37;42.07;103463.72;5042127;28;20053;-60
2022/01/12 00:10:30;;;;;;;7.18;3.83;;;;;;;18.35;42.41;103462.91;5042195;28;20087;-61
2022/01/12 00:12:55;;;;;;;6.70;4.32;;;;;;;18.33;42.32;103477.97;5041374;28;20105;-60
2022/01/12 00:15:20;;;;;;;8.03;4.10;;;;;;;18.31;42.15;103487.75;5039654;28;20057;-60
2022/01/12 00:17:46;;;;;;;7.22;4.25;;;;;;;18.28;42.42;103480.81;5037752;28;20286;-61
2022/01/12 00:20:12;;;;;;;7.77;4.57;;;;;;;18.27;42.42;103484.34;5036042;28;20033;-61
2022/01/12 00:22:39;;;;;;;7.00;4.40;;;;;;;18.25;42.21;103488.00;5035570;28;20326;-61
2022/01/12 00:25:30;;;;;;;7.13;4.55;;;;;;;18.23;42.53;103487.16;5035146;28;20028;-61
2022/01/12 00:33:26;;;;;;;8.10;4.10;;;;;;;18.17;42.67;103485.66;5035082;28;20028;-61
2022/01/12 00:35:53;;;;;;;8.52;4.80;;;;;;;18.17;42.39;103490.09;5035783;28;20033;-61
2022/01/12 00:38:22;;;;;;;7.97;4.85;;;;;;;18.15;42.34;103500.69;5034728;28;20465;-61
2022/01/12 00:40:50;;;;;;;8.20;4.63;;;;;;;18.13;42.69;103499.88;5035463;28;20044;-61
2022/01/12 00:43:18;;;;;;;8.05;4.20;;;;;;;18.11;42.17;103505.22;5035617;28;20018;-61
2022/01/12 00:45:46;;;;;;;8.18;4.30;;;;;;;18.10;42.48;103510.56;5034635;28;20053;-61
2022/01/12 00:48:15;;;;;;;6.78;4.50;;;;;;;18.07;42.38;103516.84;5035373;28;20033;-61
2022/01/12 00:50:41;;;;;;;7.75;4.57;;;;;;;18.06;42.29;103516.88;5035052;28;20550;-61
2022/01/12 00:53:06;;;;;;;8.45;4.75;;;;;;;18.05;42.37;103526.56;5034681;28;20112;-60
2022/01/12 00:55:33;;;;;;;8.38;4.53;;;;;;;18.03;42.35;103528.41;5035229;28;20037;-60
2022/01/12 00:57:58;;;;;;;7.10;4.95;;;;;;;18.02;42.62;103533.75;5035352;28;20381;-60
2022/01/12 01:00:28;;;;;;;8.73;4.57;;;;;;;18.00;42.35;103530.31;5034485;28;20026;-60
2022/01/12 01:02:54;;;;;;;9.60;4.45;;;;;;;17.98;42.37;103534.81;5034824;28;20030;-60
2022/01/12 01:05:22;;;;;;;9.07;4.85;;;;;;;17.96;42.46;103532.22;5035306;28;20025;-61
2022/01/12 01:07:48;;;;;;;7.03;4.70;;;;;;;17.94;42.47;103532.28;5034307;28;20037;-61
2022/01/12 01:10:21;;;;;;;7.53;4.53;;;;;;;17.92;42.54;103542.00;5034613;28;20057;-60
2022/01/12 01:12:47;;;;;;;8.38;4.55;;;;;;;17.91;42.55;103548.22;5034751;28;20038;-61
2022/01/12 01:15:14;;;;;;;8.00;4.70;;;;;;;17.90;42.35;103549.13;5034156;28;20072;-61
2022/01/12 01:25:49;;;;;;;7.60;5.03;;;;;;;17.87;42.95;103535.16;5035203;28;20049;-61
2022/01/12 01:28:15;;;;;;;8.23;4.70;;;;;;;17.87;42.90;103524.63;5033941;28;20041;-61
2022/01/12 01:30:42;;;;;;;8.68;4.82;;;;;;;17.89;42.75;103522.81;5034542;28;20037;-60
2022/01/12 01:33:09;;;;;;;8.82;5.00;;;;;;;17.89;42.90;103515.75;5034653;28;20017;-60
2022/01/12 01:35:40;;;;;;;7.93;4.70;;;;;;;17.91;42.45;103519.19;5033540;28;20101;-61
2022/01/12 01:38:06;;;;;;;7.70;4.65;;;;;;;17.92;42.67;103525.31;5034792;28;20029;-61
2022/01/12 01:40:34;;;;;;;7.72;4.88;;;;;;;17.94;42.33;103539.31;5034050;28;20053;-60
2022/01/12 01:53:42;;;;;;;8.53;4.80;;;;;;;17.96;42.44;103555.97;5034069;28;20040;-61
2022/01/12 01:56:07;;;;;;;8.45;4.85;;;;;;;17.95;42.56;103551.59;5033563;28;20298;-61
2022/01/12 01:58:33;;;;;;;8.95;4.97;;;;;;;17.95;42.51;103539.25;5033704;28;20037;-61
2022/01/12 02:00:58;;;;;;;7.30;5.07;;;;;;;17.93;42.30;103520.00;5034034;28;20029;-61
2022/01/12 02:03:29;;;;;;;7.65;4.55;;;;;;;17.94;42.36;103518.22;5033124;28;20025;-61
2022/01/12 02:05:55;;;;;;;8.13;5.13;;;;;;;17.93;42.25;103511.22;5034279;28;20021;-61
2022/01/12 02:08:20;;;;;;;8.93;4.63;;;;;;;17.92;42.24;103494.50;5033678;28;20387;-61
2022/01/12 02:10:45;;;;;;;9.18;5.15;;;;;;;17.91;42.31;103492.81;5033068;28;20040;-60
2022/01/12 02:13:11;;;;;;;7.70;4.87;;;;;;;17.89;42.43;103507.81;5034017;28;20028;-62
2022/01/12 02:15:37;;;;;;;8.25;4.95;;;;;;;17.88;42.61;103510.53;5033560;28;20301;-61
2022/01/12 02:37:08;;;;;;;7.35;4.93;;;;;;;17.91;42.54;103539.44;5033391;28;20123;-61
2022/01/12 02:42:28;;;;;;;7.38;4.38;;;;;;;17.91;42.55;103548.22;5028333;28;20052;-61
2022/01/12 02:50:44;;;;;;;9.25;4.95;;;;;;;17.91;42.55;103556.13;5033215;28;20176;-60
2022/01/12 02:55:57;;;;;;;10.70;4.88;;;;;;;17.93;42.63;103553.44;5038324;28;19924;-61
2022/01/12 02:58:22;;;;;;;9.48;5.10;;;;;;;17.94;42.71;103552.50;5032931;28;20572;-62
2022/01/12 03:01:10;;;;;;;10.82;5.60;;;;;;;17.94;42.58;103556.03;5032121;28;20103;-60
2022/01/12 03:03:38;;;;;;;7.88;4.75;;;;;;;17.95;42.68;103556.88;5032693;28;20117;-60
2022/01/12 03:06:06;;;;;;;7.65;4.65;;;;;;;17.96;42.94;103558.59;5032101;28;20021;-60
2022/01/12 03:08:37;;;;;;;8.85;4.90;;;;;;;17.95;42.62;103563.00;5032797;28;20033;-60
2022/01/12 03:11:13;;;;;;;8.15;4.97;;;;;;;17.96;42.76;103579.72;5033021;28;20040;-60
2022/01/12 03:13:39;;;;;;;8.55;4.80;;;;;;;17.96;42.53;103587.63;5031836;28;20148;-61
2022/01/12 03:16:13;;;;;;;8.10;5.07;;;;;;;17.97;42.73;103585.84;5032769;28;20510;-60
2022/01/12 03:18:39;;;;;;;7.60;4.90;;;;;;;17.96;42.50;103598.19;5032571;28;20028;-60
2022/01/12 03:21:05;;;;;;;8.38;5.43;;;;;;;17.95;42.36;103599.09;5032106;28;20022;-61
2022/01/12 03:23:31;;;;;;;9.50;4.90;;;;;;;17.95;42.35;103601.72;5032281;28;20037;-61
2022/01/12 03:25:59;;;;;;;8.05;4.95;;;;;;;17.94;42.45;103602.63;5032760;28;20022;-60
2022/01/12 03:28:25;;;;;;;8.88;5.13;;;;;;;17.94;42.79;103610.56;5031642;28;20041;-60
2022/01/12 03:33:50;;;;;;;9.70;5.72;;;;;;;17.95;42.98;103607.84;5033641;28;20457;-61
2022/01/12 03:36:26;;;;;;;7.60;4.80;;;;;;;17.97;42.67;103601.69;5036141;28;20036;-61
2022/01/12 03:38:54;;;;;;;12.15;6.05;;;;;;;17.97;42.52;103597.25;5036463;28;20428;-60
2022/01/12 03:41:20;;;;;;;9.00;5.10;;;;;;;17.98;42.70;103587.56;5035865;28;20336;-60
2022/01/12 03:43:46;;;;;;;7.80;5.10;;;;;;;17.96;42.43;103590.28;5036316;28;20359;-61
2022/01/12 03:46:13;;;;;;;10.15;5.43;;;;;;;17.97;42.46;103588.47;5036771;28;20026;-60
2022/01/12 03:48:38;;;;;;;9.30;5.25;;;;;;;17.98;42.50;103591.06;5035645;28;20033;-61
2022/01/12 03:51:04;;;;;;;7.70;4.97;;;;;;;17.96;42.36;103585.00;5036742;28;20033;-61
2022/01/12 03:53:29;;;;;;;8.30;5.50;;;;;;;17.95;42.74;103586.75;5036436;28;20028;-60
2022/01/12 03:55:54;;;;;;;10.38;5.45;;;;;;;17.96;42.81;103590.28;5035646;28;20041;-60
2022/01/12 03:58:20;;;;;;;7.73;5.10;;;;;;;17.96;42.76;103598.19;5036538;28;20025;-60
2022/01/12 04:00:46;;;;;;;8.13;4.93;;;;;;;17.97;43.13;103599.03;5035946;28;20620;-60
2022/01/12 04:03:13;;;;;;;10.13;5.23;;;;;;;17.98;43.20;103609.53;5035443;28;20036;-62
2022/01/12 04:08:20;;;;;;;9.60;5.00;;;;;;;18.00;42.88;103620.03;5036293;28;20041;-62
2022/01/12 04:10:56;;;;;;;8.15;4.88;;;;;;;18.00;42.90;103620.03;5035309;28;20029;-62
2022/01/12 04:13:23;;;;;;;8.35;5.38;;;;;;;17.99;42.69;103616.53;5036072;28;20541;-61
2022/01/12 04:15:55;;;;;;;8.30;5.22;;;;;;;18.00;42.95;103620.03;5036026;28;20074;-62
2022/01/12 04:18:20;;;;;;;9.10;5.07;;;;;;;17.99;42.78;103629.75;5035462;28;20026;-61
2022/01/12 04:20:47;;;;;;;9.17;5.60;;;;;;;17.99;42.83;103620.94;5035613;28;20025;-61
2022/01/12 04:23:19;;;;;;;9.02;5.47;;;;;;;17.97;42.68;103613.09;5035518;28;20286;-61
2022/01/12 04:25:53;;;;;;;10.02;5.18;;;;;;;17.98;42.48;103616.59;5035513;28;20457;-61
2022/01/12 04:28:21;;;;;;;9.10;5.82;;;;;;;17.97;42.75;103620.16;5035822;28;20129;-61
2022/01/12 04:30:48;;;;;;;8.98;5.85;;;;;;;17.97;42.84;103620.16;5034759;28;20595;-61
2022/01/12 04:33:14;;;;;;;10.18;5.50;;;;;;;17.97;43.22;103621.00;5035539;28;20489;-61
2022/01/12 04:35:52;;;;;;;8.38;5.32;;;;;;;17.98;43.25;103609.53;5035609;28;20041;-61
2022/01/12 04:38:20;;;;;;;8.32;5.38;;;;;;;17.99;43.25;103616.53;5035193;28;20037;-61
2022/01/12 04:40:46;;;;;;;10.25;6.13;;;;;;;18.00;43.32;103610.31;5035140;28;20116;-62
2022/01/12 04:43:12;;;;;;;8.98;5.82;;;;;;;18.00;43.00;103602.41;5035438;28;20473;-61
2022/01/12 04:50:55;;;;;;;8.02;5.72;;;;;;;18.01;43.02;103611.19;5035101;28;20025;-61
2022/01/12 04:53:21;;;;;;;9.15;5.30;;;;;;;18.01;42.90;103613.81;5034840;28;20057;-61
2022/01/12 04:55:47;;;;;;;10.27;5.25;;;;;;;17.99;43.07;103608.63;5034939;28;20080;-62
2022/01/12 04:58:14;;;;;;;9.98;5.53;;;;;;;17.99;42.55;103598.06;5035286;28;20394;-61
2022/01/12 05:00:40;;;;;;;9.52;5.97;;;;;;;17.99;43.06;103591.91;5034416;28;20041;-61
2022/01/12 05:08:48;;;;;;;8.30;5.38;;;;;;;17.99;42.93;103598.06;5035155;28;20495;-61
2022/01/12 05:13:59;;;;;;;8.75;5.53;;;;;;;18.00;43.18;103593.66;5034423;28;20053;-61
2022/01/12 05:16:25;;;;;;;7.88;5.60;;;;;;;17.99;43.07;103600.72;5035184;28;20107;-61
2022/01/12 05:18:53;;;;;;;9.00;5.95;;;;;;;18.00;42.72;103604.19;5034777;28;20067;-61
2022/01/12 05:21:20;;;;;;;10.30;5.93;;;;;;;17.99;42.81;103603.34;5034059;28;20401;-62
2022/01/12 05:23:45;;;;;;;9.55;6.00;;;;;;;17.98;43.11;103604.25;5034744;28;20107;-62
2022/01/12 05:26:11;;;;;;;9.07;5.82;;;;;;;17.98;42.64;103600.78;5034972;28;20404;-61
2022/01/12 05:28:39;;;;;;;9.27;6.25;;;;;;;17.97;42.76;103601.69;5033584;28;20088;-62
2022/01/12 05:31:15;;;;;;;10.32;6.30;;;;;;;17.95;43.19;103599.94;5034793;28;20052;-61
2022/01/12 05:33:46;;;;;;;9.48;6.00;;;;;;;17.98;43.26;103606.91;5033659;28;20021;-61
2022/01/12 05:36:12;;;;;;;8.70;5.88;;;;;;;17.98;43.16;103614.81;5034735;28;20029;-61
2022/01/12 05:38:37;;;;;;;9.63;6.28;;;;;;;17.99;43.14;103620.94;5034453;28;20413;-61
2022/01/12 05:41:05;;;;;;;9.60;6.37;;;;;;;17.99;43.21;103627.09;5033919;28;20025;-61
2022/01/12 05:43:32;;;;;;;9.35;6.25;;;;;;;18.00;43.10;103627.94;5034290;28;20286;-61
2022/01/12 05:46:14;;;;;;;9.25;5.82;;;;;;;18.02;42.91;103637.50;5034389;28;20029;-61
2022/01/12 05:51:25;;;;;;;9.88;5.80;;;;;;;18.00;42.81;103634.06;5034499;28;20385;-61
2022/01/12 05:53:54;;;;;;;10.13;6.45;;;;;;;18.00;42.90;103633.22;5033797;28;20041;-61
2022/01/12 05:56:20;;;;;;;10.27;6.28;;;;;;;17.99;42.86;103631.50;5033424;28;20052;-61
2022/01/12 05:58:45;;;;;;;10.02;6.38;;;;;;;18.00;43.20;103635.88;5033756;28;20065;-61
2022/01/12 06:01:11;;;;;;;12.18;6.45;;;;;;;18.00;43.62;103633.22;5034270;28;20021;-61
2022/01/12 06:03:36;;;;;;;10.70;6.20;;;;;;;18.02;44.08;103626.09;5033237;28;20017;-61
2022/01/12 06:06:05;;;;;;;8.93;5.50;;;;;;;18.04;44.01;103629.53;5034186;28;20052;-61
2022/01/12 06:08:30;;;;;;;9.43;5.78;;;;;;;18.06;44.52;103630.38;5033702;28;20029;-61
2022/01/12 06:10:56;;;;;;;9.50;5.53;;;;;;;18.09;44.26;103636.38;5033207;28;20025;-61
2022/01/12 06:13:23;;;;;;;8.65;5.75;;;;;;;18.13;44.50;103643.28;5033839;28;20392;-61
2022/01/12 06:15:48;;;;;;;10.45;6.10;;;;;;;18.16;44.21;103641.44;5032908;28;20071;-61
2022/01/12 06:18:14;;;;;;;9.90;5.85;;;;;;;18.18;44.47;103637.81;5033942;28;20025;-61
2022/01/12 06:20:39;;;;;;;9.73;5.83;;;;;;;18.19;44.30;103638.69;5033494;28;20509;-61
2022/01/12 06:23:04;;;;;;;9.07;6.10;;;;;;;18.20;44.26;103643.03;5032943;28;20295;-61
2022/01/12 06:25:29;;;;;;;10.48;6.30;;;;;;;18.22;44.44;103654.41;5033461;28;20279;-61
2022/01/12 06:27:59;;;;;;;11.05;6.20;;;;;;;18.24;44.13;103658.69;5033540;28;20048;-61
2022/01/12 06:32:54;;;;;;;12.75;6.65;;;;;;;18.27;43.58;103669.16;5033286;28;20048;-60
2022/01/12 06:35:19;;;;;;;9.70;7.28;;;;;;;18.24;42.74;103673.69;5033732;28;20022;-60
2022/01/12 06:37:45;;;;;;;10.40;6.78;;;;;;;18.23;43.50;103680.75;5032477;28;20087;-60
2022/01/12 06:40:13;;;;;;;9.27;5.80;;;;;;;18.25;44.43;103681.53;5033473;28;20037;-61
2022/01/12 06:42:38;;;;;;;9.60;5.28;;;;;;;18.28;44.53;103678.78;5032912;28;20124;-61
2022/01/12 06:45:08;;;;;;;9.02;4.80;;;;;;;18.31;44.70;103688.41;5032792;28;20072;-63
2022/01/12 06:47:36;;;;;;;8.38;5.70;;;;;;;18.33;44.82;103693.63;5033255;28;20021;-62
2022/01/12 06:50:02;;;;;;;8.65;5.10;;;;;;;18.36;45.03;103707.56;5033310;28;20481;-61
2022/01/12 06:52:27;;;;;;;9.15;4.90;;;;;;;18.39;45.66;103707.44;5032485;28;20462;-61
2022/01/12 06:54:55;;;;;;;9.00;5.30;;;;;;;18.41;45.36;103695.03;5032995;28;20055;-62
2022/01/12 06:57:21;;;;;;;8.90;5.65;;;;;;;18.41;45.02;103691.53;5033219;28;20291;-61
2022/01/12 06:59:46;;;;;;;11.23;5.78;;;;;;;18.44;45.17;103694.06;5032022;28;20473;-62
2022/01/12 07:02:12;;;;;;;9.00;5.30;;;;;;;18.44;45.22;103702.84;5033088;28;20037;-62
2022/01/12 07:04:37;;;;;;;7.83;5.10;;;;;;;18.46;44.92;103706.28;5032764;28;20534;-62
2022/01/12 07:07:02;;;;;;;7.93;5.43;;;;;;;18.48;44.99;103699.19;5032183;28;20340;-62
2022/01/12 07:09:28;;;;;;;9.52;5.35;;;;;;;18.51;44.88;103702.63;5032341;28;20289;-62
2022/01/12 07:11:53;;;;;;;7.85;4.97;;;;;;;18.53;44.95;103706.06;5032471;28;20033;-61
2022/01/12 07:14:19;;;;;;;8.43;4.95;;;;;;;18.54;45.14;103715.72;5032241;28;20057;-63
2022/01/12 07:16:50;;;;;;;9.65;6.88;;;;;;;18.53;44.02;103722.75;5032518;28;20021;-59
2022/01/12 07:19:15;;;;;;;9.32;5.78;;;;;;;18.53;45.02;103713.97;5031997;28;20029;-61
2022/01/12 07:21:41;;;;;;;7.93;5.27;;;;;;;18.53;45.06;103714.81;5032416;28;20017;-60
2022/01/12 07:24:06;;;;;;;9.75;5.30;;;;;;;18.54;45.03;103716.56;5032623;28;20279;-60
2022/01/12 07:26:33;;;;;;;8.45;5.10;;;;;;;18.57;45.11;103727.00;5031790;28;20056;-60
2022/01/12 07:28:59;;;;;;;9.80;5.05;;;;;;;18.59;45.14;103713.75;5032490;28;20053;-60
2022/01/12 07:31:24;;;;;;;7.35;4.72;;;;;;;18.62;45.10;103729.47;5032628;28;20026;-60
2022/01/12 07:33:54;;;;;;;8.13;5.20;;;;;;;18.65;45.23;103729.38;5031551;28;20370;-60
2022/01/12 07:36:19;;;;;;;8.35;5.30;;;;;;;18.67;45.07;103725.75;5032549;28;20072;-60
2022/01/12 07:38:46;;;;;;;8.45;5.05;;;;;;;18.70;45.23;103742.41;5032126;28;20120;-60
2022/01/12 07:41:11;;;;;;;8.43;5.05;;;;;;;18.70;44.95;103745.91;5031750;28;20488;-60
2022/01/12 07:43:36;;;;;;;10.33;5.70;;;;;;;18.72;45.17;103751.97;5032269;28;20026;-60
2022/01/12 07:46:01;;;;;;;9.13;5.80;;;;;;;18.73;45.18;103761.63;5032546;28;20041;-61
2022/01/12 07:48:27;;;;;;;10.63;6.20;;;;;;;18.75;45.49;103764.22;5031729;28;20030;-61
2022/01/12 07:50:52;;;;;;;11.93;5.97;;;;;;;18.74;44.95;103766.00;5032016;28;20287;-60
2022/01/12 07:53:17;;;;;;;9.07;5.75;;;;;;;18.74;45.00;103766.00;5032545;28;20076;-60
2022/01/12 07:55:42;;;;;;;8.17;5.43;;;;;;;18.75;45.34;103773.00;5031288;28;20061;-60
2022/01/12 07:58:08;;;;;;;10.13;6.23;;;;;;;18.78;45.16;103779.94;5032437;28;20321;-60
2022/01/12 08:00:33;;;;;;;9.40;5.85;;;;;;;18.76;45.24;103780.00;5031876;28;20299;-60
2022/01/12 08:02:58;;;;;;;10.20;6.22;;;;;;;18.78;45.78;103791.38;5031811;28;20021;-59
2022/01/12 08:05:24;;;;;;;8.37;6.13;;;;;;;18.78;45.37;103793.16;5032470;28;20456;-60
2022/01/12 08:07:49;;;;;;;10.20;5.82;;;;;;;18.78;45.49;103788.72;5032053;28;20271;-60
2022/01/12 08:10:15;;;;;;;8.07;5.72;;;;;;;18.79;45.29;103794.91;5031801;28;20108;-60
2022/01/12 08:12:41;;;;;;;10.90;6.05;;;;;;;18.80;45.39;103801.88;5032091;28;20026;-61
2022/01/12 08:15:09;;;;;;;7.85;6.10;;;;;;;18.79;45.15;103813.38;5032616;28;20373;-65
2022/01/12 08:17:58;;;;;;;8.93;6.25;;;;;;;18.84;45.65;103808.81;5042523;28;20041;-63
2022/01/12 08:20:45;;;;;;;10.55;6.47;;;;;;;18.99;45.86;103813.53;5045848;28;20037;-63
2022/01/12 08:23:14;;;;;;;10.10;6.00;;;;;;;19.12;45.60;103823.63;5047292;28;20053;-63
2022/01/12 08:28:52;;;;;;;10.38;6.25;;;;;;;19.34;45.51;103832.44;5041107;28;20057;-62
2022/01/12 08:31:20;;;;;;;10.20;6.63;;;;;;;19.44;45.14;103826.78;5036483;28;20396;-64
2022/01/12 08:33:46;;;;;;;9.40;6.32;;;;;;;19.49;44.86;103833.63;5037086;28;20034;-66
2022/01/12 08:36:12;;;;;;;11.25;6.95;;;;;;;19.53;45.06;103824.63;5035998;28;20032;-65
2022/01/12 08:38:37;;;;;;;9.00;6.43;;;;;;;19.54;44.77;103826.34;5035089;28;20026;-63
2022/01/12 08:41:05;;;;;;;11.07;7.07;;;;;;;19.56;44.72;103826.28;5035725;28;20098;-64
2022/01/12 08:43:30;;;;;;;11.60;7.13;;;;;;;19.58;44.91;103820.03;5034864;28;20044;-64
2022/01/12 08:45:56;;;;;;;11.52;7.53;;;;;;;19.62;45.03;103823.41;5036170;28;20021;-64
2022/01/12 08:48:21;;;;;;;11.10;6.75;;;;;;;19.64;44.50;103829.47;5036536;28;20053;-64
2022/01/12 08:50:47;;;;;;;13.38;7.82;;;;;;;19.64;44.38;103831.28;5034527;28;20037;-64
2022/01/12 08:53:13;;;;;;;11.43;8.00;;;;;;;19.67;44.67;103829.34;5035504;28;20107;-63
2022/01/12 08:55:39;;;;;;;11.15;7.40;;;;;;;19.69;44.54;103824.00;5035201;28;20022;-64
2022/01/12 08:58:04;;;;;;;10.95;7.45;;;;;;;19.70;44.54;103829.22;5036064;28;20049;-63
2022/01/12 09:00:29;;;;;;;12.60;7.50;;;;;;;19.72;44.40;103830.03;5036632;28;20041;-63
2022/01/12 09:02:55;;;;;;;12.65;7.47;;;;;;;19.76;44.42;103833.44;5035910;28;20025;-63
2022/01/12 09:05:23;;;;;;;10.65;7.45;;;;;;;19.79;44.20;103840.38;5035244;28;20022;-63
2022/01/12 09:07:49;;;;;;;11.82;8.18;;;;;;;19.78;44.10;103836.03;5035006;28;20033;-64
2022/01/12 09:10:15;;;;;;;14.77;8.43;;;;;;;19.78;43.74;103843.97;5035174;28;20503;-65
2022/01/12 09:12:40;;;;;;;13.88;8.23;;;;;;;19.79;44.35;103851.84;5034875;28;20112;-65
2022/01/12 09:15:10;;;;;;;12.85;8.73;;;;;;;19.79;44.15;103857.16;5035644;28;20121;-64
2022/01/12 09:17:40;;;;;;;11.85;7.97;;;;;;;19.79;44.40;103864.19;5035064;28;20032;-64
2022/01/12 09:20:08;;;;;;;12.20;8.13;;;;;;;19.81;44.24;103867.66;5034291;28;20404;-63
2022/01/12 09:22:34;;;;;;;12.35;8.10;;;;;;;19.80;44.25;103877.38;5034582;28;20470;-62
2022/01/12 09:25:00;;;;;;;12.15;7.95;;;;;;;19.77;44.00;103872.19;5034916;28;20105;-64
2022/01/12 09:27:25;;;;;;;12.02;8.45;;;;;;;19.78;44.28;103866.00;5034244;28;20045;-62
2022/01/12 09:29:51;;;;;;;13.18;8.82;;;;;;;19.79;44.55;103875.66;5034459;28;20553;-63
2022/01/12 09:32:16;;;;;;;11.97;7.90;;;;;;;19.79;44.68;103880.06;5035328;28;20496;-64
2022/01/12 09:34:41;;;;;;;13.45;8.80;;;;;;;19.78;44.05;103889.81;5034166;28;20321;-64
2022/01/12 09:37:07;;;;;;;15.95;10.68;;;;;;;19.73;42.05;103894.41;5037789;28;20044;-66
2022/01/12 09:39:34;;;;;;;12.88;8.73;;;;;;;19.68;43.43;103891.94;5034980;28;20422;-64
2022/01/12 09:42:00;;;;;;;13.15;8.68;;;;;;;19.68;43.44;103891.94;5034727;28;20375;-62
2022/01/12 09:44:30;;;;;;;12.30;9.60;;;;;;;19.64;43.31;103890.31;5034736;28;20529;-64
2022/01/12 09:46:56;;;;;;;12.32;8.35;;;;;;;19.62;43.51;103892.19;5033997;28;20030;-63
2022/01/12 09:49:21;;;;;;;13.93;8.95;;;;;;;19.61;43.46;103893.09;5034616;28;20034;-63
2022/01/12 09:51:55;;;;;;;12.13;8.23;;;;;;;19.61;43.47;103887.81;5034089;28;20060;-63
2022/01/12 09:54:21;;;;;;;12.02;7.80;;;;;;;19.62;43.90;103892.19;5033870;28;20278;-62
2022/01/12 09:56:47;;;;;;;12.27;7.85;;;;;;;19.63;44.43;103893.03;5034461;28;20029;-65
2022/01/12 09:59:13;;;;;;;12.05;7.88;;;;;;;19.65;44.76;103893.84;5034887;28;20401;-64
2022/01/12 10:01:43;;;;;;;13.07;7.35;;;;;;;19.67;45.14;103895.50;5034599;28;20026;-64
2022/01/12 10:04:20;;;;;;;10.35;7.53;;;;;;;19.71;44.37;103905.06;5035149;28;20401;-64
2022/01/12 10:06:53;;;;;;;11.25;7.60;;;;;;;19.73;44.02;103910.28;5033889;28;20028;-64
2022/01/12 10:09:33;;;;;;;11.80;7.55;;;;;;;19.73;43.60;103920.88;5034593;28;20036;-63
2022/01/12 10:12:01;;;;;;;11.27;7.47;;;;;;;19.75;43.48;103934.88;5034930;28;20492;-64
2022/01/12 10:14:39;;;;;;;11.05;7.35;;;;;;;19.75;43.43;103930.44;5034735;28;20029;-64
2022/01/12 10:17:05;;;;;;;10.55;7.13;;;;;;;19.77;43.49;103926.91;5034010;28;20041;-64
2022/01/12 10:19:35;;;;;;;11.55;7.25;;;;;;;19.77;43.58;103926.91;5033970;28;20095;-63
2022/01/12 10:22:04;;;;;;;13.27;6.95;;;;;;;19.78;44.32;103931.31;5033760;28;20072;-64
2022/01/12 10:24:30;;;;;;;11.65;7.50;;;;;;;19.77;44.26;103927.78;5033871;28;20025;-64
2022/01/12 10:26:56;;;;;;;12.80;6.93;;;;;;;19.78;44.20;103921.56;5034245;28;20104;-64
2022/01/12 10:29:25;;;;;;;11.40;6.85;;;;;;;19.79;44.16;103919.78;5033304;28;20049;-63
2022/01/12 10:32:13;;;;;;;10.40;7.03;;;;;;;19.78;43.87;103913.63;5033613;28;20025;-64
2022/01/12 10:34:40;;;;;;;9.88;6.93;;;;;;;19.77;44.00;103909.25;5034158;28;20049;-64
2022/01/12 10:37:08;;;;;;;10.02;6.68;;;;;;;19.78;43.59;103912.78;5033224;28;20044;-64
2022/01/12 10:39:34;;;;;;;8.43;5.95;;;;;;;19.77;43.79;103908.41;5033421;28;20029;-63
2022/01/12 10:42:11;;;;;;;9.07;6.30;;;;;;;19.75;43.54;103914.56;5033595;28;20496;-66
2022/01/12 10:44:40;;;;;;;9.40;6.65;;;;;;;19.74;43.58;103911.97;5032005;28;20037;-65
2022/01/12 10:47:18;;;;;;;9.43;6.85;;;;;;;19.69;43.67;103917.50;5033708;28;20041;-64
2022/01/12 10:49:55;;;;;;;11.68;7.03;;;;;;;19.64;43.81;103910.63;5033436;28;20029;-64
2022/01/12 10:52:23;;;;;;;11.77;6.18;;;;;;;19.62;43.69;103923.06;5033190;28;20029;-64
2022/01/12 10:55:07;;;;;;;8.32;6.22;;;;;;;19.59;44.04;103924.03;5034415;28;20029;-64
2022/01/12 10:57:36;;;;;;;9.48;6.05;;;;;;;19.61;44.16;103919.53;5033202;28;20443;-64
2022/01/12 11:00:10;;;;;;;10.13;5.88;;;;;;;19.62;44.02;103918.63;5035528;28;20045;-64
2022/01/12 11:02:39;;;;;;;9.93;6.35;;;;;;;19.64;44.07;103924.72;5036744;28;20033;-65
2022/01/12 11:05:15;;;;;;;8.38;6.18;;;;;;;19.66;44.08;103929.94;5037031;28;20026;-65
2022/01/12 11:07:40;;;;;;;9.35;5.93;;;;;;;19.67;43.99;103934.34;5040031;28;20026;-65
2022/01/12 11:10:08;;;;;;;8.45;5.75;;;;;;;19.66;43.91;103929.94;5037296;28;20022;-63
2022/01/12 11:12:35;;;;;;;9.10;5.55;;;;;;;19.68;44.21;103925.47;5038263;28;20025;-63
2022/01/12 11:15:04;;;;;;;9.18;5.97;;;;;;;19.67;44.15;103916.66;5037748;28;20041;-64
2022/01/12 11:17:32;;;;;;;9.50;5.45;;;;;;;19.69;43.98;103929.84;5033732;28;20053;-65
2022/01/12 11:20:39;;;;;;;10.30;6.32;;;;;;;19.68;43.60;103922.84;5033026;28;20075;-64
2022/01/12 11:23:11;;;;;;;8.98;5.78;;;;;;;19.68;43.71;103920.19;5024899;28;20038;-64
2022/01/12 11:25:43;;;;;;;11.10;5.75;;;;;;;19.70;44.21;103928.94;5032719;28;20508;-63
2022/01/12 11:28:23;;;;;;;7.85;5.55;;;;;;;19.71;44.24;103935.91;5033367;28;20095;-65
2022/01/12 11:30:50;;;;;;;12.50;6.13;;;;;;;19.67;43.27;103927.25;5033525;28;20045;-65
2022/01/12 11:33:16;;;;;;;8.38;5.57;;;;;;;19.65;43.60;103934.41;5032483;28;20113;-61
2022/01/12 11:35:44;;;;;;;10.95;6.05;;;;;;;19.61;43.84;103937.22;5032593;28;20036;-60
2022/01/12 11:38:19;;;;;;;7.97;5.60;;;;;;;19.52;44.42;103931.38;5032647;28;20022;-62
2022/01/12 11:40:44;;;;;;;8.02;5.45;;;;;;;19.47;44.13;103930.69;5031699;28;20035;-61
2022/01/12 11:43:25;;;;;;;9.98;6.07;;;;;;;19.42;43.64;103942.34;5032790;28;20112;-60
2022/01/12 11:46:09;;;;;;;11.88;6.10;;;;;;;19.32;43.65;103928.63;5032381;28;20064;-61
2022/01/12 11:48:41;;;;;;;9.10;5.38;;;;;;;19.27;44.26;103931.44;5031584;28;20026;-60
2022/01/12 11:51:07;;;;;;;10.48;6.25;;;;;;;19.24;44.25;103928.06;5032763;28;20056;-60
2022/01/12 11:53:43;;;;;;;8.98;5.50;;;;;;;19.20;44.59;103922.88;5031732;28;20547;-60
2022/01/12 11:56:14;;;;;;;8.73;5.63;;;;;;;19.18;44.74;103913.25;5036225;28;20100;-60
2022/01/12 11:59:09;;;;;;;8.05;5.07;;;;;;;19.15;44.69;103911.63;5035977;28;20477;-60
2022/01/12 12:01:38;;;;;;;8.10;5.00;;;;;;;19.13;44.37;103910.78;5035527;28;20044;-60
2022/01/12 12:04:04;;;;;;;10.93;6.32;;;;;;;19.09;43.75;103914.50;5036478;28;20042;-60
2022/01/12 12:06:33;;;;;;;9.73;5.70;;;;;;;19.07;44.75;103921.59;5036075;28;20064;-60
2022/01/12 12:09:17;;;;;;;6.80;4.75;;;;;;;19.04;44.76;103924.34;5035559;28;20124;-62
2022/01/12 12:11:51;;;;;;;8.73;5.30;;;;;;;19.05;44.82;103931.38;5035830;28;20528;-62
2022/01/12 12:14:19;;;;;;;8.65;5.15;;;;;;;19.04;44.69;103927.00;5036008;28;20505;-63
2022/01/12 12:16:45;;;;;;;7.82;5.28;;;;;;;19.03;45.00;103923.50;5035297;28;20040;-62
2022/01/12 12:19:11;;;;;;;7.70;5.25;;;;;;;19.03;45.08;103918.22;5035766;28;20377;-61
2022/01/12 12:21:41;;;;;;;8.13;4.70;;;;;;;19.03;45.26;103920.84;5035032;28;20026;-62
2022/01/12 12:24:09;;;;;;;8.70;5.18;;;;;;;19.03;45.46;103930.56;5035772;28;20477;-62
2022/01/12 12:26:42;;;;;;;8.45;5.35;;;;;;;19.02;45.00;103932.31;5035778;28;20113;-61
2022/01/12 12:29:07;;;;;;;10.35;4.97;;;;;;;19.01;45.48;103930.63;5034829;28;20096;-61
2022/01/12 12:31:33;;;;;;;8.30;4.65;;;;;;;19.02;45.49;103927.03;5035459;28;20033;-59
2022/01/12 12:34:04;;;;;;;9.20;4.95;;;;;;;19.02;45.83;103932.31;5035772;28;20045;-60
2022/01/12 12:36:33;;;;;;;8.52;4.47;;;;;;;19.02;45.56;103936.75;5034522;28;20054;-61
2022/01/12 12:39:11;;;;;;;8.70;5.40;;;;;;;19.01;45.73;103920.06;5035808;28;20018;-63
2022/01/12 12:41:43;;;;;;;8.18;4.90;;;;;;;19.01;45.59;103930.63;5035742;28;20279;-61
2022/01/12 12:44:24;;;;;;;7.70;4.60;;;;;;;19.01;45.80;103921.84;5034994;28;20401;-61
2022/01/12 12:46:51;;;;;;;9.73;4.85;;;;;;;19.01;45.45;103912.13;5035386;28;20037;-61
2022/01/12 12:49:16;;;;;;;8.65;4.85;;;;;;;19.00;45.75;103901.59;5035331;28;20063;-61